sensor_id;sensor_type;location;lat;lon;timestamp;P1;durP1;ratioP1;P2;durP2;ratioP2
9330;SDS011;4704;50.470;12.072;2023-01-04T00:01:58;2.88;;;2.67;;
9330;SDS011;4704;50.470;12.072;2023-01-04T00:04:26;2.58;;;2.38;;
9330;SDS011;4704;50.470;12.072;2023-01-04T00:06:54;2.63;;;2.42;;
9330;SDS011;4704;50.470;12.072;2023-01-04T00:09:22;2.65;;;2.45;;
9330;SDS011;4704;50.470;12.072;2023-01-04T00:11:50;2.38;;;2.28;;
9330;SDS011;4704;50.470;12.072;2023-01-04T00:14:17;3.08;;;2.75;;
9330;SDS011;4704;50.470;12.072;2023-01-04T00:16:46;2.53;;;2.33;;
9330;SDS011;4704;50.470;12.072;2023-01-04T00:19:14;2.40;;;2.20;;
9330;SDS011;4704;50.470;12.072;2023-01-04T00:21:42;2.40;;;2.20;;
9330;SDS011;4704;50.470;12.072;2023-01-04T00:24:09;2.67;;;2.47;;
9330;SDS011;4704;50.470;12.072;2023-01-04T00:26:39;2.33;;;2.13;;
9330;SDS011;4704;50.470;12.072;2023-01-04T00:29:08;2.58;;;2.38;;
9330;SDS011;4704;50.470;12.072;2023-01-04T00:31:37;2.55;;;2.35;;
9330;SDS011;4704;50.470;12.072;2023-01-04T00:34:08;2.40;;;2.20;;
9330;SDS011;4704;50.470;12.072;2023-01-04T00:36:37;2.60;;;2.40;;
9330;SDS011;4704;50.470;12.072;2023-01-04T00:39:05;2.78;;;2.58;;
9330;SDS011;4704;50.470;12.072;2023-01-04T00:41:34;2.50;;;2.30;;
9330;SDS011;4704;50.470;12.072;2023-01-04T00:44:03;2.50;;;2.30;;
9330;SDS011;4704;50.470;12.072;2023-01-04T00:46:31;2.60;;;2.40;;
9330;SDS011;4704;50.470;12.072;2023-01-04T00:48:59;2.65;;;2.45;;
9330;SDS011;4704;50.470;12.072;2023-01-04T00:51:29;2.70;;;2.50;;
9330;SDS011;4704;50.470;12.072;2023-01-04T00:53:59;2.63;;;2.20;;
9330;SDS011;4704;50.470;12.072;2023-01-04T00:56:26;2.50;;;2.30;;
9330;SDS011;4704;50.470;12.072;2023-01-04T00:58:54;2.40;;;2.20;;
9330;SDS011;4704;50.470;12.072;2023-01-04T01:01:22;2.55;;;2.35;;
9330;SDS011;4704;50.470;12.072;2023-01-04T01:03:54;2.28;;;2.17;;
9330;SDS011;4704;50.470;12.072;2023-01-04T01:06:22;2.42;;;2.22;;
9330;SDS011;4704;50.470;12.072;2023-01-04T01:08:52;2.58;;;2.38;;
9330;SDS011;4704;50.470;12.072;2023-01-04T01:11:20;2.50;;;2.30;;
9330;SDS011;4704;50.470;12.072;2023-01-04T01:13:48;2.38;;;2.20;;
9330;SDS011;4704;50.470;12.072;2023-01-04T01:16:17;2.42;;;2.22;;
9330;SDS011;4704;50.470;12.072;2023-01-04T01:18:45;2.20;;;2.03;;
9330;SDS011;4704;50.470;12.072;2023-01-04T01:21:13;2.40;;;2.20;;
9330;SDS011;4704;50.470;12.072;2023-01-04T01:23:41;2.50;;;2.30;;
9330;SDS011;4704;50.470;12.072;2023-01-04T01:26:12;2.50;;;2.30;;
9330;SDS011;4704;50.470;12.072;2023-01-04T01:28:39;2.28;;;2.08;;
9330;SDS011;4704;50.470;12.072;2023-01-04T01:31:08;2.10;;;2.00;;
9330;SDS011;4704;50.470;12.072;2023-01-04T01:33:36;2.63;;;2.42;;
9330;SDS011;4704;50.470;12.072;2023-01-04T01:36:04;2.42;;;2.22;;
9330;SDS011;4704;50.470;12.072;2023-01-04T01:38:31;2.00;;;1.90;;
9330;SDS011;4704;50.470;12.072;2023-01-04T01:40:59;2.30;;;2.10;;
9330;SDS011;4704;50.470;12.072;2023-01-04T01:46:16;2.60;;;2.40;;
9330;SDS011;4704;50.470;12.072;2023-01-04T01:48:45;2.40;;;2.20;;
9330;SDS011;4704;50.470;12.072;2023-01-04T01:51:13;2.03;;;1.90;;
9330;SDS011;4704;50.470;12.072;2023-01-04T01:53:42;2.33;;;2.13;;
9330;SDS011;4704;50.470;12.072;2023-01-04T01:56:11;2.33;;;2.13;;
9330;SDS011;4704;50.470;12.072;2023-01-04T01:58:43;2.20;;;2.10;;
9330;SDS011;4704;50.470;12.072;2023-01-04T02:01:12;2.47;;;2.28;;
9330;SDS011;4704;50.470;12.072;2023-01-04T02:03:42;2.20;;;2.00;;
9330;SDS011;4704;50.470;12.072;2023-01-04T02:06:10;2.25;;;2.08;;
9330;SDS011;4704;50.470;12.072;2023-01-04T02:08:39;2.00;;;1.90;;
9330;SDS011;4704;50.470;12.072;2023-01-04T02:11:08;2.35;;;2.15;;
9330;SDS011;4704;50.470;12.072;2023-01-04T02:13:36;2.28;;;2.08;;
9330;SDS011;4704;50.470;12.072;2023-01-04T02:16:25;1.75;;;1.65;;
9330;SDS011;4704;50.470;12.072;2023-01-04T02:18:56;1.90;;;1.80;;
9330;SDS011;4704;50.470;12.072;2023-01-04T02:21:28;1.92;;;1.83;;
9330;SDS011;4704;50.470;12.072;2023-01-04T02:24:15;2.00;;;1.90;;
9330;SDS011;4704;50.470;12.072;2023-01-04T02:32:27;2.10;;;1.90;;
9330;SDS011;4704;50.470;12.072;2023-01-04T02:35:02;1.77;;;1.67;;
9330;SDS011;4704;50.470;12.072;2023-01-04T02:37:33;1.92;;;1.83;;
9330;SDS011;4704;50.470;12.072;2023-01-04T02:40:05;2.38;;;2.17;;
9330;SDS011;4704;50.470;12.072;2023-01-04T02:42:35;2.00;;;1.90;;
9330;SDS011;4704;50.470;12.072;2023-01-04T02:45:26;1.90;;;1.80;;
9330;SDS011;4704;50.470;12.072;2023-01-04T02:47:56;1.88;;;1.77;;
9330;SDS011;4704;50.470;12.072;2023-01-04T02:50:49;1.95;;;1.75;;
9330;SDS011;4704;50.470;12.072;2023-01-04T02:53:18;1.73;;;1.63;;
9330;SDS011;4704;50.470;12.072;2023-01-04T02:55:47;1.70;;;1.60;;
9330;SDS011;4704;50.470;12.072;2023-01-04T02:58:20;1.85;;;1.75;;
9330;SDS011;4704;50.470;12.072;2023-01-04T03:00:52;1.80;;;1.70;;
9330;SDS011;4704;50.470;12.072;2023-01-04T03:03:42;1.60;;;1.50;;
9330;SDS011;4704;50.470;12.072;2023-01-04T03:06:31;1.63;;;1.52;;
9330;SDS011;4704;50.470;12.072;2023-01-04T03:09:04;1.52;;;1.42;;
9330;SDS011;4704;50.470;12.072;2023-01-04T03:11:35;1.65;;;1.55;;
9330;SDS011;4704;50.470;12.072;2023-01-04T03:14:23;1.80;;;1.70;;
9330;SDS011;4704;50.470;12.072;2023-01-04T03:16:53;1.67;;;1.58;;
9330;SDS011;4704;50.470;12.072;2023-01-04T03:19:23;1.63;;;1.52;;
9330;SDS011;4704;50.470;12.072;2023-01-04T03:22:22;1.60;;;1.50;;
9330;SDS011;4704;50.470;12.072;2023-01-04T03:25:08;1.67;;;1.58;;
9330;SDS011;4704;50.470;12.072;2023-01-04T03:27:56;1.60;;;1.50;;
9330;SDS011;4704;50.470;12.072;2023-01-04T03:30:44;1.63;;;1.52;;
9330;SDS011;4704;50.470;12.072;2023-01-04T03:33:31;1.60;;;1.50;;
9330;SDS011;4704;50.470;12.072;2023-01-04T03:36:21;1.70;;;1.60;;
9330;SDS011;4704;50.470;12.072;2023-01-04T03:38:53;1.70;;;1.60;;
9330;SDS011;4704;50.470;12.072;2023-01-04T03:41:43;1.70;;;1.60;;
9330;SDS011;4704;50.470;12.072;2023-01-04T03:44:29;1.70;;;1.45;;
9330;SDS011;4704;50.470;12.072;2023-01-04T03:47:16;1.70;;;1.60;;
9330;SDS011;4704;50.470;12.072;2023-01-04T03:50:03;1.60;;;1.50;;
9330;SDS011;4704;50.470;12.072;2023-01-04T03:52:34;1.63;;;1.50;;
9330;SDS011;4704;50.470;12.072;2023-01-04T03:55:02;1.50;;;1.40;;
9330;SDS011;4704;50.470;12.072;2023-01-04T03:57:31;1.60;;;1.50;;
9330;SDS011;4704;50.470;12.072;2023-01-04T04:00:01;1.60;;;1.50;;
9330;SDS011;4704;50.470;12.072;2023-01-04T04:02:30;1.40;;;1.30;;
9330;SDS011;4704;50.470;12.072;2023-01-04T04:04:59;1.70;;;1.40;;
9330;SDS011;4704;50.470;12.072;2023-01-04T04:07:46;1.58;;;1.48;;
9330;SDS011;4704;50.470;12.072;2023-01-04T04:10:31;1.70;;;1.60;;
9330;SDS011;4704;50.470;12.072;2023-01-04T04:12:59;1.40;;;1.30;;
9330;SDS011;4704;50.470;12.072;2023-01-04T04:15:27;1.55;;;1.45;;
9330;SDS011;4704;50.470;12.072;2023-01-04T04:17:54;1.33;;;1.23;;
9330;SDS011;4704;50.470;12.072;2023-01-04T04:20:22;1.52;;;1.42;;
9330;SDS011;4704;50.470;12.072;2023-01-04T04:22:51;1.75;;;1.65;;
9330;SDS011;4704;50.470;12.072;2023-01-04T04:25:19;1.52;;;1.40;;
9330;SDS011;4704;50.470;12.072;2023-01-04T04:27:47;1.70;;;1.60;;
9330;SDS011;4704;50.470;12.072;2023-01-04T04:30:15;1.60;;;1.50;;
9330;SDS011;4704;50.470;12.072;2023-01-04T04:32:43;1.52;;;1.30;;
9330;SDS011;4704;50.470;12.072;2023-01-04T04:35:10;1.45;;;1.35;;
9330;SDS011;4704;50.470;12.072;2023-01-04T04:37:38;1.50;;;1.40;;
9330;SDS011;4704;50.470;12.072;2023-01-04T04:40:08;1.50;;;1.40;;
9330;SDS011;4704;50.470;12.072;2023-01-04T04:42:56;1.70;;;1.60;;
9330;SDS011;4704;50.470;12.072;2023-01-04T04:45:23;1.45;;;1.35;;
9330;SDS011;4704;50.470;12.072;2023-01-04T04:47:51;1.50;;;1.40;;
9330;SDS011;4704;50.470;12.072;2023-01-04T04:50:18;1.65;;;1.55;;
9330;SDS011;4704;50.470;12.072;2023-01-04T04:52:46;1.60;;;1.50;;
9330;SDS011;4704;50.470;12.072;2023-01-04T04:55:15;1.60;;;1.50;;
9330;SDS011;4704;50.470;12.072;2023-01-04T04:57:43;1.70;;;1.60;;
9330;SDS011;4704;50.470;12.072;2023-01-04T05:00:11;1.50;;;1.40;;
9330;SDS011;4704;50.470;12.072;2023-01-04T05:02:39;1.60;;;1.50;;
9330;SDS011;4704;50.470;12.072;2023-01-04T05:05:07;1.55;;;1.45;;
9330;SDS011;4704;50.470;12.072;2023-01-04T05:07:35;1.52;;;1.42;;
9330;SDS011;4704;50.470;12.072;2023-01-04T05:10:02;1.52;;;1.42;;
9330;SDS011;4704;50.470;12.072;2023-01-04T05:12:31;1.70;;;1.60;;
9330;SDS011;4704;50.470;12.072;2023-01-04T05:15:13;1.67;;;1.58;;
9330;SDS011;4704;50.470;12.072;2023-01-04T05:17:40;1.65;;;1.55;;
9330;SDS011;4704;50.470;12.072;2023-01-04T05:20:08;1.77;;;1.67;;
9330;SDS011;4704;50.470;12.072;2023-01-04T05:22:35;1.70;;;1.60;;
9330;SDS011;4704;50.470;12.072;2023-01-04T05:25:03;1.67;;;1.52;;
9330;SDS011;4704;50.470;12.072;2023-01-04T05:27:34;1.80;;;1.70;;
9330;SDS011;4704;50.470;12.072;2023-01-04T05:30:01;1.48;;;1.38;;
9330;SDS011;4704;50.470;12.072;2023-01-04T05:32:46;1.70;;;1.60;;
9330;SDS011;4704;50.470;12.072;2023-01-04T05:35:14;1.60;;;1.50;;
9330;SDS011;4704;50.470;12.072;2023-01-04T05:37:41;1.50;;;1.40;;
9330;SDS011;4704;50.470;12.072;2023-01-04T05:40:09;1.60;;;1.50;;
9330;SDS011;4704;50.470;12.072;2023-01-04T05:42:38;1.70;;;1.60;;
9330;SDS011;4704;50.470;12.072;2023-01-04T05:45:05;1.58;;;1.48;;
9330;SDS011;4704;50.470;12.072;2023-01-04T05:47:33;1.77;;;1.60;;
9330;SDS011;4704;50.470;12.072;2023-01-04T05:50:00;1.58;;;1.48;;
9330;SDS011;4704;50.470;12.072;2023-01-04T05:52:28;2.13;;;1.85;;
9330;SDS011;4704;50.470;12.072;2023-01-04T05:54:56;1.55;;;1.45;;
9330;SDS011;4704;50.470;12.072;2023-01-04T05:57:23;1.80;;;1.50;;
9330;SDS011;4704;50.470;12.072;2023-01-04T05:59:52;1.65;;;1.55;;
9330;SDS011;4704;50.470;12.072;2023-01-04T06:02:20;1.67;;;1.58;;
9330;SDS011;4704;50.470;12.072;2023-01-04T06:04:48;1.70;;;1.60;;
9330;SDS011;4704;50.470;12.072;2023-01-04T06:07:16;1.55;;;1.45;;
9330;SDS011;4704;50.470;12.072;2023-01-04T06:09:44;1.48;;;1.38;;
9330;SDS011;4704;50.470;12.072;2023-01-04T06:12:11;2.25;;;1.55;;
9330;SDS011;4704;50.470;12.072;2023-01-04T06:14:39;1.50;;;1.40;;
9330;SDS011;4704;50.470;12.072;2023-01-04T06:17:08;1.60;;;1.50;;
9330;SDS011;4704;50.470;12.072;2023-01-04T06:19:35;1.60;;;1.50;;
9330;SDS011;4704;50.470;12.072;2023-01-04T06:22:03;1.60;;;1.50;;
9330;SDS011;4704;50.470;12.072;2023-01-04T06:24:30;1.95;;;1.55;;
9330;SDS011;4704;50.470;12.072;2023-01-04T06:26:59;1.52;;;1.42;;
9330;SDS011;4704;50.470;12.072;2023-01-04T06:29:26;2.13;;;1.60;;
9330;SDS011;4704;50.470;12.072;2023-01-04T06:31:54;1.80;;;1.70;;
9330;SDS011;4704;50.470;12.072;2023-01-04T06:34:23;1.60;;;1.50;;
9330;SDS011;4704;50.470;12.072;2023-01-04T06:36:50;1.70;;;1.60;;
9330;SDS011;4704;50.470;12.072;2023-01-04T06:39:18;1.60;;;1.50;;
9330;SDS011;4704;50.470;12.072;2023-01-04T06:41:45;2.08;;;1.60;;
9330;SDS011;4704;50.470;12.072;2023-01-04T06:44:12;2.28;;;1.55;;
9330;SDS011;4704;50.470;12.072;2023-01-04T06:46:41;2.15;;;1.60;;
9330;SDS011;4704;50.470;12.072;2023-01-04T06:49:08;1.50;;;1.40;;
9330;SDS011;4704;50.470;12.072;2023-01-04T06:51:37;1.73;;;1.63;;
9330;SDS011;4704;50.470;12.072;2023-01-04T06:54:05;1.52;;;1.42;;
9330;SDS011;4704;50.470;12.072;2023-01-04T06:56:32;2.70;;;1.80;;
9330;SDS011;4704;50.470;12.072;2023-01-04T06:59:00;1.50;;;1.40;;
9330;SDS011;4704;50.470;12.072;2023-01-04T07:01:27;1.48;;;1.38;;
9330;SDS011;4704;50.470;12.072;2023-01-04T07:03:55;1.63;;;1.52;;
9330;SDS011;4704;50.470;12.072;2023-01-04T07:06:22;2.05;;;1.65;;
9330;SDS011;4704;50.470;12.072;2023-01-04T07:08:51;1.70;;;1.60;;
9330;SDS011;4704;50.470;12.072;2023-01-04T07:11:18;1.73;;;1.63;;
9330;SDS011;4704;50.470;12.072;2023-01-04T07:13:46;1.70;;;1.60;;
9330;SDS011;4704;50.470;12.072;2023-01-04T07:16:13;1.63;;;1.52;;
9330;SDS011;4704;50.470;12.072;2023-01-04T07:18:41;1.92;;;1.38;;
9330;SDS011;4704;50.470;12.072;2023-01-04T07:21:08;1.92;;;1.75;;
9330;SDS011;4704;50.470;12.072;2023-01-04T07:23:35;1.50;;;1.40;;
9330;SDS011;4704;50.470;12.072;2023-01-04T07:26:04;1.80;;;1.40;;
9330;SDS011;4704;50.470;12.072;2023-01-04T07:28:32;1.52;;;1.42;;
9330;SDS011;4704;50.470;12.072;2023-01-04T07:31:16;1.48;;;1.38;;
9330;SDS011;4704;50.470;12.072;2023-01-04T07:33:47;1.40;;;1.30;;
9330;SDS011;4704;50.470;12.072;2023-01-04T07:36:14;1.50;;;1.40;;
9330;SDS011;4704;50.470;12.072;2023-01-04T07:38:42;1.50;;;1.40;;
9330;SDS011;4704;50.470;12.072;2023-01-04T07:41:11;1.50;;;1.40;;
9330;SDS011;4704;50.470;12.072;2023-01-04T07:43:38;1.58;;;1.40;;
9330;SDS011;4704;50.470;12.072;2023-01-04T07:46:06;1.50;;;1.40;;
9330;SDS011;4704;50.470;12.072;2023-01-04T07:48:33;1.27;;;1.17;;
9330;SDS011;4704;50.470;12.072;2023-01-04T07:51:00;1.40;;;1.30;;
9330;SDS011;4704;50.470;12.072;2023-01-04T07:53:28;1.63;;;1.50;;
9330;SDS011;4704;50.470;12.072;2023-01-04T07:55:55;1.35;;;1.25;;
9330;SDS011;4704;50.470;12.072;2023-01-04T07:58:25;1.70;;;1.60;;
9330;SDS011;4704;50.470;12.072;2023-01-04T08:00:53;1.40;;;1.30;;
9330;SDS011;4704;50.470;12.072;2023-01-04T08:03:20;1.50;;;1.40;;
9330;SDS011;4704;50.470;12.072;2023-01-04T08:05:47;1.52;;;1.42;;
9330;SDS011;4704;50.470;12.072;2023-01-04T08:08:15;1.67;;;1.58;;
9330;SDS011;4704;50.470;12.072;2023-01-04T08:10:42;1.75;;;1.40;;
9330;SDS011;4704;50.470;12.072;2023-01-04T08:13:09;1.48;;;1.38;;
9330;SDS011;4704;50.470;12.072;2023-01-04T08:15:38;1.45;;;1.35;;
9330;SDS011;4704;50.470;12.072;2023-01-04T08:18:06;1.40;;;1.30;;
9330;SDS011;4704;50.470;12.072;2023-01-04T08:20:33;1.30;;;1.20;;
9330;SDS011;4704;50.470;12.072;2023-01-04T08:23:00;1.50;;;1.40;;
9330;SDS011;4704;50.470;12.072;2023-01-04T08:25:28;1.50;;;1.40;;
9330;SDS011;4704;50.470;12.072;2023-01-04T08:27:55;1.60;;;1.50;;
9330;SDS011;4704;50.470;12.072;2023-01-04T08:30:23;1.60;;;1.50;;
9330;SDS011;4704;50.470;12.072;2023-01-04T08:32:52;1.45;;;1.35;;
9330;SDS011;4704;50.470;12.072;2023-01-04T08:35:20;1.40;;;1.30;;
9330;SDS011;4704;50.470;12.072;2023-01-04T08:37:48;1.67;;;1.50;;
9330;SDS011;4704;50.470;12.072;2023-01-04T08:40:15;1.42;;;1.33;;
9330;SDS011;4704;50.470;12.072;2023-01-04T08:42:42;1.30;;;1.20;;
9330;SDS011;4704;50.470;12.072;2023-01-04T08:45:10;1.30;;;1.20;;
9330;SDS011;4704;50.470;12.072;2023-01-04T08:47:37;1.60;;;1.48;;
9330;SDS011;4704;50.470;12.072;2023-01-04T08:50:07;1.38;;;1.27;;
9330;SDS011;4704;50.470;12.072;2023-01-04T08:52:34;1.17;;;1.15;;
9330;SDS011;4704;50.470;12.072;2023-01-04T08:55:02;1.52;;;1.42;;
9330;SDS011;4704;50.470;12.072;2023-01-04T08:57:29;1.52;;;1.40;;
9330;SDS011;4704;50.470;12.072;2023-01-04T08:59:57;1.50;;;1.40;;
9330;SDS011;4704;50.470;12.072;2023-01-04T09:02:25;1.45;;;1.35;;
9330;SDS011;4704;50.470;12.072;2023-01-04T09:04:53;1.40;;;1.30;;
9330;SDS011;4704;50.470;12.072;2023-01-04T09:07:26;1.48;;;1.38;;
9330;SDS011;4704;50.470;12.072;2023-01-04T09:09:54;1.67;;;1.58;;
9330;SDS011;4704;50.470;12.072;2023-01-04T09:12:22;1.38;;;1.20;;
9330;SDS011;4704;50.470;12.072;2023-01-04T09:14:49;1.33;;;1.23;;
9330;SDS011;4704;50.470;12.072;2023-01-04T09:17:16;1.17;;;1.08;;
9330;SDS011;4704;50.470;12.072;2023-01-04T09:19:44;1.20;;;1.10;;
9330;SDS011;4704;50.470;12.072;2023-01-04T09:22:11;1.50;;;1.40;;
9330;SDS011;4704;50.470;12.072;2023-01-04T09:24:40;1.30;;;1.20;;
9330;SDS011;4704;50.470;12.072;2023-01-04T09:27:08;1.42;;;1.33;;
9330;SDS011;4704;50.470;12.072;2023-01-04T09:29:35;1.13;;;1.02;;
9330;SDS011;4704;50.470;12.072;2023-01-04T09:32:02;1.50;;;1.40;;
9330;SDS011;4704;50.470;12.072;2023-01-04T09:34:30;1.40;;;1.30;;
9330;SDS011;4704;50.470;12.072;2023-01-04T09:36:57;1.27;;;1.17;;
9330;SDS011;4704;50.470;12.072;2023-01-04T09:39:25;1.27;;;1.17;;
9330;SDS011;4704;50.470;12.072;2023-01-04T09:41:56;1.60;;;1.50;;
9330;SDS011;4704;50.470;12.072;2023-01-04T09:44:33;1.17;;;1.08;;
9330;SDS011;4704;50.470;12.072;2023-01-04T09:47:03;1.30;;;1.20;;
9330;SDS011;4704;50.470;12.072;2023-01-04T09:49:35;1.30;;;1.20;;
9330;SDS011;4704;50.470;12.072;2023-01-04T09:52:09;1.40;;;1.30;;
9330;SDS011;4704;50.470;12.072;2023-01-04T09:54:39;1.33;;;1.23;;
9330;SDS011;4704;50.470;12.072;2023-01-04T09:57:12;1.30;;;1.20;;
9330;SDS011;4704;50.470;12.072;2023-01-04T09:59:43;1.40;;;1.30;;
9330;SDS011;4704;50.470;12.072;2023-01-04T10:02:11;1.20;;;1.10;;
9330;SDS011;4704;50.470;12.072;2023-01-04T10:04:42;1.20;;;1.10;;
9330;SDS011;4704;50.470;12.072;2023-01-04T10:07:22;1.35;;;1.25;;
9330;SDS011;4704;50.470;12.072;2023-01-04T10:09:50;1.80;;;1.20;;
9330;SDS011;4704;50.470;12.072;2023-01-04T10:12:25;1.30;;;1.13;;
9330;SDS011;4704;50.470;12.072;2023-01-04T10:14:57;1.23;;;1.13;;
9330;SDS011;4704;50.470;12.072;2023-01-04T10:17:30;1.00;;;1.00;;
9330;SDS011;4704;50.470;12.072;2023-01-04T10:20:11;1.27;;;1.17;;
9330;SDS011;4704;50.470;12.072;2023-01-04T10:22:45;1.40;;;1.30;;
9330;SDS011;4704;50.470;12.072;2023-01-04T10:25:28;1.40;;;1.30;;
9330;SDS011;4704;50.470;12.072;2023-01-04T10:28:01;1.40;;;1.30;;
9330;SDS011;4704;50.470;12.072;2023-01-04T10:30:32;1.27;;;1.15;;
9330;SDS011;4704;50.470;12.072;2023-01-04T10:33:03;1.20;;;1.10;;
9330;SDS011;4704;50.470;12.072;2023-01-04T10:35:36;1.20;;;1.10;;
9330;SDS011;4704;50.470;12.072;2023-01-04T10:38:09;1.35;;;1.25;;
9330;SDS011;4704;50.470;12.072;2023-01-04T10:40:38;1.10;;;1.00;;
9330;SDS011;4704;50.470;12.072;2023-01-04T10:43:11;1.20;;;1.10;;
9330;SDS011;4704;50.470;12.072;2023-01-04T10:45:42;1.38;;;1.27;;
9330;SDS011;4704;50.470;12.072;2023-01-04T10:48:13;1.00;;;0.90;;
9330;SDS011;4704;50.470;12.072;2023-01-04T10:50:46;1.30;;;1.20;;
9330;SDS011;4704;50.470;12.072;2023-01-04T10:53:15;1.20;;;1.10;;
9330;SDS011;4704;50.470;12.072;2023-01-04T10:55:44;1.30;;;1.20;;
9330;SDS011;4704;50.470;12.072;2023-01-04T10:58:18;1.40;;;1.30;;
9330;SDS011;4704;50.470;12.072;2023-01-04T11:00:49;1.00;;;1.00;;
9330;SDS011;4704;50.470;12.072;2023-01-04T11:03:18;1.20;;;1.10;;
9330;SDS011;4704;50.470;12.072;2023-01-04T11:05:48;1.15;;;1.10;;
9330;SDS011;4704;50.470;12.072;2023-01-04T11:08:18;1.15;;;1.05;;
9330;SDS011;4704;50.470;12.072;2023-01-04T11:10:47;1.20;;;1.10;;
9330;SDS011;4704;50.470;12.072;2023-01-04T11:13:17;1.35;;;1.10;;
9330;SDS011;4704;50.470;12.072;2023-01-04T11:15:45;1.15;;;1.00;;
9330;SDS011;4704;50.470;12.072;2023-01-04T11:18:13;1.30;;;1.20;;
9330;SDS011;4704;50.470;12.072;2023-01-04T11:20:42;1.20;;;0.95;;
9330;SDS011;4704;50.470;12.072;2023-01-04T11:23:11;1.00;;;1.00;;
9330;SDS011;4704;50.470;12.072;2023-01-04T11:25:40;0.93;;;0.88;;
9330;SDS011;4704;50.470;12.072;2023-01-04T11:28:12;1.10;;;1.00;;
9330;SDS011;4704;50.470;12.072;2023-01-04T11:30:47;1.30;;;1.20;;
9330;SDS011;4704;50.470;12.072;2023-01-04T11:33:17;1.10;;;1.00;;
9330;SDS011;4704;50.470;12.072;2023-01-04T11:35:45;1.30;;;1.20;;
9330;SDS011;4704;50.470;12.072;2023-01-04T11:38:14;1.08;;;1.00;;
9330;SDS011;4704;50.470;12.072;2023-01-04T11:40:52;1.40;;;1.20;;
9330;SDS011;4704;50.470;12.072;2023-01-04T11:43:20;1.20;;;1.10;;
9330;SDS011;4704;50.470;12.072;2023-01-04T11:45:52;1.30;;;1.20;;
9330;SDS011;4704;50.470;12.072;2023-01-04T11:48:30;1.08;;;0.93;;
9330;SDS011;4704;50.470;12.072;2023-01-04T11:50:58;1.20;;;1.10;;
9330;SDS011;4704;50.470;12.072;2023-01-04T11:53:28;0.80;;;0.80;;
9330;SDS011;4704;50.470;12.072;2023-01-04T11:58:37;1.33;;;0.98;;
9330;SDS011;4704;50.470;12.072;2023-01-04T12:01:17;1.45;;;1.13;;
9330;SDS011;4704;50.470;12.072;2023-01-04T12:03:45;1.20;;;1.10;;
9330;SDS011;4704;50.470;12.072;2023-01-04T12:06:13;1.10;;;1.00;;
9330;SDS011;4704;50.470;12.072;2023-01-04T12:08:44;1.00;;;1.00;;
9330;SDS011;4704;50.470;12.072;2023-01-04T12:11:15;1.00;;;0.98;;
9330;SDS011;4704;50.470;12.072;2023-01-04T12:13:44;1.08;;;0.90;;
9330;SDS011;4704;50.470;12.072;2023-01-04T12:16:15;1.13;;;1.02;;
9330;SDS011;4704;50.470;12.072;2023-01-04T12:18:45;1.02;;;0.93;;
9330;SDS011;4704;50.470;12.072;2023-01-04T12:21:15;1.02;;;0.95;;
9330;SDS011;4704;50.470;12.072;2023-01-04T12:23:44;1.10;;;1.00;;
9330;SDS011;4704;50.470;12.072;2023-01-04T12:26:11;1.15;;;1.10;;
9330;SDS011;4704;50.470;12.072;2023-01-04T12:28:41;1.10;;;1.00;;
9330;SDS011;4704;50.470;12.072;2023-01-04T12:31:28;1.10;;;1.00;;
9330;SDS011;4704;50.470;12.072;2023-01-04T12:33:57;1.17;;;0.90;;
9330;SDS011;4704;50.470;12.072;2023-01-04T12:39:25;1.02;;;0.93;;
9330;SDS011;4704;50.470;12.072;2023-01-04T12:47:51;0.95;;;0.85;;
9330;SDS011;4704;50.470;12.072;2023-01-04T12:56:08;0.88;;;0.88;;
9330;SDS011;4704;50.470;12.072;2023-01-04T13:01:31;1.20;;;1.10;;
9330;SDS011;4704;50.470;12.072;2023-01-04T13:04:01;1.20;;;1.10;;
9330;SDS011;4704;50.470;12.072;2023-01-04T13:06:29;0.98;;;0.93;;
9330;SDS011;4704;50.470;12.072;2023-01-04T13:08:57;0.98;;;0.88;;
9330;SDS011;4704;50.470;12.072;2023-01-04T13:11:38;0.85;;;0.80;;
9330;SDS011;4704;50.470;12.072;2023-01-04T13:14:10;0.80;;;0.80;;
9330;SDS011;4704;50.470;12.072;2023-01-04T13:16:44;1.02;;;0.93;;
9330;SDS011;4704;50.470;12.072;2023-01-04T13:19:17;1.10;;;1.00;;
9330;SDS011;4704;50.470;12.072;2023-01-04T13:21:46;1.33;;;1.10;;
9330;SDS011;4704;50.470;12.072;2023-01-04T13:24:17;0.85;;;0.80;;
9330;SDS011;4704;50.470;12.072;2023-01-04T13:26:46;1.00;;;0.90;;
9330;SDS011;4704;50.470;12.072;2023-01-04T13:29:15;1.20;;;1.10;;
9330;SDS011;4704;50.470;12.072;2023-01-04T13:31:49;0.93;;;0.88;;
9330;SDS011;4704;50.470;12.072;2023-01-04T13:34:20;1.10;;;0.90;;
9330;SDS011;4704;50.470;12.072;2023-01-04T13:39:39;0.90;;;0.90;;
9330;SDS011;4704;50.470;12.072;2023-01-04T13:42:10;0.88;;;0.88;;
9330;SDS011;4704;50.470;12.072;2023-01-04T13:47:32;1.35;;;1.00;;
9330;SDS011;4704;50.470;12.072;2023-01-04T13:50:02;0.93;;;0.85;;
9330;SDS011;4704;50.470;12.072;2023-01-04T13:52:29;0.70;;;0.70;;
9330;SDS011;4704;50.470;12.072;2023-01-04T13:55:08;0.80;;;0.80;;
9330;SDS011;4704;50.470;12.072;2023-01-04T13:57:36;0.70;;;0.70;;
9330;SDS011;4704;50.470;12.072;2023-01-04T14:00:04;0.80;;;0.80;;
9330;SDS011;4704;50.470;12.072;2023-01-04T14:02:32;0.70;;;0.70;;
9330;SDS011;4704;50.470;12.072;2023-01-04T14:05:01;0.70;;;0.70;;
9330;SDS011;4704;50.470;12.072;2023-01-04T14:07:29;0.80;;;0.73;;
9330;SDS011;4704;50.470;12.072;2023-01-04T14:09:56;1.15;;;1.10;;
9330;SDS011;4704;50.470;12.072;2023-01-04T14:12:25;1.17;;;0.80;;
9330;SDS011;4704;50.470;12.072;2023-01-04T14:14:53;0.90;;;0.90;;
9330;SDS011;4704;50.470;12.072;2023-01-04T14:17:28;1.00;;;0.93;;
9330;SDS011;4704;50.470;12.072;2023-01-04T14:19:57;0.70;;;0.70;;
9330;SDS011;4704;50.470;12.072;2023-01-04T14:22:32;0.85;;;0.80;;
9330;SDS011;4704;50.470;12.072;2023-01-04T14:25:00;0.85;;;0.80;;
9330;SDS011;4704;50.470;12.072;2023-01-04T14:27:28;0.80;;;0.80;;
9330;SDS011;4704;50.470;12.072;2023-01-04T14:29:56;1.00;;;0.90;;
9330;SDS011;4704;50.470;12.072;2023-01-04T14:32:23;0.80;;;0.80;;
9330;SDS011;4704;50.470;12.072;2023-01-04T14:34:52;0.65;;;0.60;;
9330;SDS011;4704;50.470;12.072;2023-01-04T14:37:19;0.70;;;0.70;;
9330;SDS011;4704;50.470;12.072;2023-01-04T14:39:48;0.70;;;0.70;;
9330;SDS011;4704;50.470;12.072;2023-01-04T14:42:22;0.73;;;0.70;;
9330;SDS011;4704;50.470;12.072;2023-01-04T14:44:49;0.90;;;0.70;;
9330;SDS011;4704;50.470;12.072;2023-01-04T14:47:17;0.60;;;0.60;;
9330;SDS011;4704;50.470;12.072;2023-01-04T14:49:44;0.75;;;0.75;;
9330;SDS011;4704;50.470;12.072;2023-01-04T14:52:17;0.68;;;0.68;;
9330;SDS011;4704;50.470;12.072;2023-01-04T14:54:46;0.70;;;0.70;;
9330;SDS011;4704;50.470;12.072;2023-01-04T14:57:14;0.75;;;0.75;;
9330;SDS011;4704;50.470;12.072;2023-01-04T14:59:42;1.15;;;0.70;;
9330;SDS011;4704;50.470;12.072;2023-01-04T15:02:10;0.73;;;0.73;;
9330;SDS011;4704;50.470;12.072;2023-01-04T15:04:37;1.13;;;0.70;;
9330;SDS011;4704;50.470;12.072;2023-01-04T15:07:04;1.08;;;0.75;;
9330;SDS011;4704;50.470;12.072;2023-01-04T15:09:32;1.00;;;0.90;;
9330;SDS011;4704;50.470;12.072;2023-01-04T15:12:00;0.60;;;0.60;;
9330;SDS011;4704;50.470;12.072;2023-01-04T15:14:29;0.70;;;0.70;;
9330;SDS011;4704;50.470;12.072;2023-01-04T15:16:57;0.75;;;0.75;;
9330;SDS011;4704;50.470;12.072;2023-01-04T15:19:24;0.68;;;0.68;;
9330;SDS011;4704;50.470;12.072;2023-01-04T15:21:51;0.70;;;0.70;;
9330;SDS011;4704;50.470;12.072;2023-01-04T15:24:19;0.70;;;0.70;;
9330;SDS011;4704;50.470;12.072;2023-01-04T15:26:46;0.60;;;0.60;;
9330;SDS011;4704;50.470;12.072;2023-01-04T15:29:14;0.70;;;0.70;;
9330;SDS011;4704;50.470;12.072;2023-01-04T15:31:43;0.80;;;0.70;;
9330;SDS011;4704;50.470;12.072;2023-01-04T15:34:10;0.70;;;0.70;;
9330;SDS011;4704;50.470;12.072;2023-01-04T15:36:37;0.75;;;0.75;;
9330;SDS011;4704;50.470;12.072;2023-01-04T15:39:05;1.63;;;0.73;;
9330;SDS011;4704;50.470;12.072;2023-01-04T15:41:32;0.63;;;0.63;;
9330;SDS011;4704;50.470;12.072;2023-01-04T15:44:18;0.52;;;0.52;;
9330;SDS011;4704;50.470;12.072;2023-01-04T15:46:47;0.70;;;0.70;;
9330;SDS011;4704;50.470;12.072;2023-01-04T15:49:15;0.65;;;0.65;;
9330;SDS011;4704;50.470;12.072;2023-01-04T15:51:42;0.93;;;0.80;;
9330;SDS011;4704;50.470;12.072;2023-01-04T15:54:10;0.60;;;0.60;;